Es ist keine erhöhte Aufmerksamkeit aufgrund des Wetters notwendig.    Es gibt keine Warnungen.

Meine Webcam more information My webcam


Donnerradar more information blitzortung!


Regenradar more information rain snow radar



METAR-Meldungen aus der Umgebung

   
EDDH - Hamburg
Aktualisierung: 24-07-2019 08:20
Klar  
Klar  
   Wind: OSO 13 km/h
Wind: OSO 13 km/h
Temperatur: 24°C
Taupunkt: 16°C
Luftfeuchte: 61%
Luftdruck: 1018 hPa
Sichtbarkeit: More than 10 km
Bewölkung: Klar
EDDH 240620Z 12007KT 100V160 CAVOK 24/16 Q1018 NOSIG
EDHL - Lübeck
Aktualisierung: 24-07-2019 07:50
Klar  
Klar  
   Wind: SO 5.6 km/h
Wind: SO 5.6 km/h
Temperatur: 21°C
Taupunkt: 17°C
Luftfeuchte: 78%
Luftdruck: 1018 hPa
Sichtbarkeit: More than 10 km
Bewölkung: Klar
EDHL 240550Z 13003KT 080V170 CAVOK 21/17 Q1018
EHBK - Amsterdam
Aktualisierung: 24-07-2019 07:55
Teilweise bewölkt  
Teilweise bewölkt  
   Wind: Süden 7.4 km/h
Wind: Süden 7.4 km/h
Temperatur: 25°C
Taupunkt: 16°C
Luftfeuchte: 57%
Luftdruck: 1014 hPa
Bewölkt: Teilweise bewölkt
Sichtbarkeit: More than 10 km
Bewölkung: Teilweise bewölkt
EHBK 240555Z AUTO 17004KT 9999 NSC 25/16 Q1014 NOSIG
EBCV - Mons/Bergen
Aktualisierung: 24-07-2019 07:55
Klar  
Klar  
   Wind: Süden 9.3 km/h
Wind: Süden 9.3 km/h
Temperatur: 24°C
Taupunkt: 14°C
Luftfeuchte: 54%
Luftdruck: 1013 hPa
Bewölkt: Klar
Sichtbarkeit: More than 10 km
Bewölkung: Klar
EBCV 240555Z AUTO 17005KT 9999 NCD 24/14 Q1013 BLU
ELLX - Luxemburg
Aktualisierung: 24-07-2019 08:20
Klar  
Klar  
   Wind: Osten 5.6 km/h
Wind: Osten 5.6 km/h
Temperatur: 26°C
Taupunkt: 13°C
Luftfeuchte: 45%
Luftdruck: 1017 hPa
Sichtbarkeit: More than 10 km
Bewölkung: Klar
ELLX 240620Z 09003KT 020V130 CAVOK 26/13 Q1017 NOSIG
EBOS - Oostende
Aktualisierung: 24-07-2019 08:20
Klar  
Klar  
   Wind: SSO 16.7 km/h
Wind: SSO 16.7 km/h
Temperatur: 25°C
Taupunkt: 15°C
Luftfeuchte: 54%
Luftdruck: 1012 hPa
Sichtbarkeit: More than 10 km
Bewölkung: Klar
EBOS 240620Z 16009KT CAVOK 25/15 Q1012 NOSIG

Script entwickelt von  Saratoga-weather.org Angepasst für das Template von  Weerstation Leuven

Sie finden meine Wetter-Infos auch auf:

Weather Underground

Germany Weather Network

AWEKAS

WeatherlinkIP

Von mir verwendete Ausrüstung:

Wetterstation
Davis VP2

Wetterprogramm
Weather Display

WetterComputer
RaspberryPi

Anbieter
1und1

Davis VP2

Weather Display

RaspberryPi

1und1